Time;durP1;ratioP1;P1;durP2;ratioP2;P2;SDS_P1;SDS_P2;PMS_P1;PMS_P2;Temp;Humidity;BMP_temperature;BMP_pressure;BME280_temperature;BME280_humidity;BME280_pressure;Samples;Min_cycle;Max_cycle;Signal;HPM_P1;HPM_P2
2023/04/08 00:01:07;;;;;;;7.20;6.50;;;;;;;7.89;80.97;98395.38;5068825;28;20220;-60
2023/04/08 00:03:32;;;;;;;7.90;7.03;;;;;;;7.46;80.90;98331.00;5068738;28;20728;-60
2023/04/08 00:05:59;;;;;;;7.82;7.03;;;;;;;7.72;81.40;98366.34;5068846;28;20186;-60
2023/04/08 00:08:25;;;;;;;8.90;6.97;;;;;;;7.82;81.48;98400.97;5068758;28;20181;-60
2023/04/08 00:10:50;;;;;;;8.27;7.03;;;;;;;7.58;83.45;98403.19;5068703;28;20247;-60
2023/04/08 00:13:15;;;;;;;9.38;7.47;;;;;;;6.94;84.53;98327.13;5070370;28;20279;-62
2023/04/08 00:15:41;;;;;;;9.68;6.95;;;;;;;7.51;84.13;98413.94;5072354;28;20178;-61
2023/04/08 00:18:07;;;;;;;8.30;7.50;;;;;;;7.26;84.22;98378.44;5072024;28;20278;-61
2023/04/08 00:20:32;;;;;;;7.72;7.03;;;;;;;7.49;84.25;98411.44;5072219;28;20181;-60
2023/04/08 00:22:57;;;;;;;7.93;6.88;;;;;;;7.50;83.35;98427.72;5057592;28;20181;-60
2023/04/08 00:25:23;;;;;;;7.90;6.75;;;;;;;7.33;83.63;98402.91;5066867;28;20212;-60
2023/04/08 00:27:49;;;;;;;8.18;7.25;;;;;;;7.48;83.92;98421.81;5072154;28;20189;-61
2023/04/08 00:30:15;;;;;;;8.60;7.00;;;;;;;7.39;83.69;98418.03;5072090;28;20203;-60
2023/04/08 00:32:40;;;;;;;8.02;7.03;;;;;;;7.20;83.84;98391.66;5072031;28;20679;-60
2023/04/08 00:35:06;;;;;;;7.70;6.78;;;;;;;6.93;83.50;98346.06;5072059;28;20363;-60
2023/04/08 00:37:31;;;;;;;8.27;7.45;;;;;;;6.80;84.39;98333.03;5071943;28;20191;-60
2023/04/08 00:39:57;;;;;;;7.50;6.70;;;;;;;7.46;84.82;98441.69;5071891;28;20250;-60
2023/04/08 00:42:22;;;;;;;7.60;6.90;;;;;;;7.34;85.46;98425.16;5071913;28;20628;-60
2023/04/08 00:44:48;;;;;;;8.68;7.78;;;;;;;6.76;86.25;98335.84;5071733;28;20652;-60
2023/04/08 00:47:15;;;;;;;8.85;6.72;;;;;;;7.13;85.78;98369.75;5071806;28;20691;-60
2023/04/08 00:49:41;;;;;;;9.63;7.43;;;;;;;7.57;84.74;98422.13;5058400;28;20644;-60
2023/04/08 00:52:07;;;;;;;7.65;6.85;;;;;;;7.66;84.42;98423.38;5054082;28;20632;-60
2023/04/08 00:54:32;;;;;;;10.52;8.02;;;;;;;7.49;84.95;98390.84;5071471;28;20192;-61
2023/04/08 00:57:01;;;;;;;8.02;7.20;;;;;;;7.73;85.81;98435.81;5071432;28;20201;-60
2023/04/08 00:59:29;;;;;;;10.35;7.13;;;;;;;7.57;85.01;98390.44;5071575;28;20185;-60
2023/04/08 01:02:05;;;;;;;9.07;6.63;;;;;;;7.55;83.60;98361.34;5071439;28;20214;-60
2023/04/08 01:04:58;;;;;;;8.50;7.07;;;;;;;8.11;82.62;98442.16;5071509;28;20222;-60
2023/04/08 01:07:35;;;;;;;9.48;7.25;;;;;;;8.19;82.59;98444.28;5071514;28;20666;-61
2023/04/08 01:10:06;;;;;;;7.82;6.78;;;;;;;7.67;82.17;98358.91;5071251;28;20568;-60
2023/04/08 01:12:39;;;;;;;10.50;7.65;;;;;;;7.59;82.68;98361.09;5071403;28;20570;-60
2023/04/08 01:15:07;;;;;;;10.48;8.50;;;;;;;7.58;83.83;98356.84;5071292;28;20189;-60
2023/04/08 01:17:35;;;;;;;10.32;8.75;;;;;;;8.20;83.83;98444.25;5071166;28;20181;-60
2023/04/08 01:20:03;;;;;;;12.10;9.88;;;;;;;8.31;86.55;98462.50;5071091;28;20633;-60
2023/04/08 01:22:54;;;;;;;15.20;9.90;;;;;;;8.26;86.92;98449.03;5071054;28;20173;-60
2023/04/08 01:25:28;;;;;;;11.50;9.52;;;;;;;7.99;87.85;98401.66;5063389;28;20243;-60
2023/04/08 01:27:56;;;;;;;11.32;9.43;;;;;;;8.11;90.11;98443.91;5053434;28;20169;-60
2023/04/08 01:30:23;;;;;;;11.98;10.43;;;;;;;8.05;91.45;98434.78;5053354;28;20181;-60
2023/04/08 01:32:51;;;;;;;11.80;10.40;;;;;;;7.88;91.75;98401.47;5053251;28;20170;-61
2023/04/08 01:35:17;;;;;;;12.95;9.68;;;;;;;7.87;92.75;98410.09;5053263;28;20682;-60
2023/04/08 01:37:44;;;;;;;12.73;9.98;;;;;;;7.67;94.03;98383.81;5053424;28;20252;-60
2023/04/08 01:40:10;;;;;;;13.18;10.50;;;;;;;7.84;94.77;98406.84;5053139;28;20253;-60
2023/04/08 01:42:37;;;;;;;13.32;10.38;;;;;;;7.57;95.41;98357.78;5053069;28;20170;-60
2023/04/08 01:45:03;;;;;;;13.43;10.75;;;;;;;7.84;95.14;98389.66;5052977;28;20203;-59
2023/04/08 01:47:29;;;;;;;12.18;10.88;;;;;;;7.95;95.88;98425.94;5052985;28;20244;-60
2023/04/08 01:49:55;;;;;;;10.18;8.98;;;;;;;8.01;92.96;98401.56;5052923;28;20181;-59
2023/04/08 01:52:22;;;;;;;11.80;8.77;;;;;;;7.79;92.71;98403.72;5052868;28;20181;-60
2023/04/08 01:54:48;;;;;;;11.70;8.57;;;;;;;7.32;92.79;98351.53;5052853;28;20178;-60
2023/04/08 01:57:21;;;;;;;12.45;9.30;;;;;;;7.85;92.77;98447.16;5052714;28;20198;-60
2023/04/08 01:59:50;;;;;;;11.45;9.23;;;;;;;7.58;94.45;98408.34;5052820;28;20291;-60
2023/04/08 02:02:19;;;;;;;11.15;9.45;;;;;;;7.59;95.40;98399.72;5052704;28;20173;-60
2023/04/08 02:04:45;;;;;;;11.25;8.60;;;;;;;7.52;95.04;98375.22;5052596;28;20229;-60
2023/04/08 02:07:11;;;;;;;11.00;8.23;;;;;;;7.74;91.92;98393.69;5052569;28;20236;-60
2023/04/08 02:09:36;;;;;;;13.48;8.00;;;;;;;7.45;88.87;98363.63;5052587;28;20178;-60
2023/04/08 02:12:01;;;;;;;7.63;6.82;;;;;;;8.19;86.29;98442.56;5052487;28;20264;-61
2023/04/08 02:14:28;;;;;;;11.02;7.95;;;;;;;8.05;85.57;98450.25;5052420;28;20184;-60
2023/04/08 02:17:01;;;;;;;8.57;7.32;;;;;;;7.45;85.48;98366.19;5052375;28;20181;-61
2023/04/08 02:19:31;;;;;;;8.48;7.65;;;;;;;8.10;84.69;98468.84;5052404;28;20268;-61
2023/04/08 02:22:08;;;;;;;12.70;10.68;;;;;;;7.77;90.71;98428.72;5052351;28;20327;-61
2023/04/08 02:24:35;;;;;;;10.30;9.18;;;;;;;8.06;91.58;98464.81;5052275;28;20201;-61
2023/04/08 02:27:03;;;;;;;15.35;11.55;;;;;;;8.00;98.13;98460.00;5052227;28;20178;-61
2023/04/08 02:29:31;;;;;;;15.82;13.55;;;;;;;8.04;99.89;98460.66;5052257;28;20182;-61
2023/04/08 02:31:57;;;;;;;19.05;13.45;;;;;;;7.91;100.00;98449.38;5052217;28;20182;-61
2023/04/08 02:34:24;;;;;;;16.88;13.65;;;;;;;7.82;100.00;98404.38;5029654;28;20679;-60
2023/04/08 02:36:50;;;;;;;20.73;14.00;;;;;;;8.06;100.00;98407.28;5029172;28;20206;-60
2023/04/08 02:39:16;;;;;;;21.35;13.23;;;;;;;8.09;100.00;98446.56;5029758;28;20233;-60
2023/04/08 02:41:41;;;;;;;16.60;14.00;;;;;;;8.23;100.00;98441.50;5029741;28;20212;-60
2023/04/08 02:44:06;;;;;;;17.33;13.77;;;;;;;8.21;100.00;98460.53;5029631;28;20225;-60
2023/04/08 02:46:32;;;;;;;62.55;27.58;;;;;;;7.98;100.00;98414.63;5029666;28;20269;-60
2023/04/08 02:48:58;;;;;;;20.98;14.50;;;;;;;8.02;100.00;98423.81;5029615;28;20203;-60
2023/04/08 02:51:23;;;;;;;16.95;12.13;;;;;;;8.24;100.00;98450.03;5029586;28;20186;-60
2023/04/08 02:53:49;;;;;;;15.10;11.82;;;;;;;7.96;100.00;98439.63;5029598;28;20190;-60
2023/04/08 02:56:14;;;;;;;14.90;11.60;;;;;;;7.39;100.00;98376.84;5029652;28;20582;-59
2023/04/08 02:58:39;;;;;;;14.13;12.32;;;;;;;8.12;100.00;98461.88;5029404;28;20623;-60
2023/04/08 03:01:06;;;;;;;13.35;11.60;;;;;;;7.87;100.00;98410.09;5029560;28;20186;-60
2023/04/08 03:03:31;;;;;;;13.68;11.43;;;;;;;7.75;100.00;98428.81;5029516;28;20273;-60
2023/04/08 03:05:57;;;;;;;14.02;11.38;;;;;;;7.64;100.00;98443.22;5045886;28;20182;-60
2023/04/08 03:08:23;;;;;;;12.27;10.45;;;;;;;7.62;100.00;98474.22;5051821;28;20551;-60
2023/04/08 03:10:48;;;;;;;16.38;11.43;;;;;;;7.32;100.00;98390.13;5051759;28;20170;-60
2023/04/08 03:13:14;;;;;;;14.85;11.68;;;;;;;7.86;100.00;98447.06;5051707;28;20177;-60
2023/04/08 03:15:40;;;;;;;14.20;11.25;;;;;;;8.09;100.00;98481.84;5029493;28;20630;-61
2023/04/08 03:18:05;;;;;;;13.77;12.18;;;;;;;7.92;100.00;98477.63;5049063;28;20205;-60
2023/04/08 03:20:31;;;;;;;15.02;11.25;;;;;;;7.74;100.00;98475.28;5049225;28;20224;-60
2023/04/08 03:22:56;;;;;;;15.02;11.50;;;;;;;7.34;100.00;98394.28;5049185;28;20193;-61
2023/04/08 03:25:22;;;;;;;13.48;10.50;;;;;;;7.60;100.00;98424.56;5049444;28;20311;-61
2023/04/08 03:27:47;;;;;;;13.02;10.73;;;;;;;7.59;100.00;98398.88;5049169;28;20182;-61
2023/04/08 03:30:12;;;;;;;14.40;11.20;;;;;;;7.51;100.00;98399.31;5049266;28;20196;-61
2023/04/08 03:32:38;;;;;;;11.63;10.18;;;;;;;7.38;100.00;98398.34;5049090;28;20201;-61
2023/04/08 03:35:05;;;;;;;14.35;11.20;;;;;;;7.81;100.00;98490.28;5049135;28;20190;-61
2023/04/08 03:37:30;;;;;;;14.23;11.10;;;;;;;7.81;100.00;98472.25;5049110;28;20297;-61
2023/04/08 03:39:56;;;;;;;12.10;10.05;;;;;;;7.38;100.00;98411.22;5048920;28;20676;-61
2023/04/08 03:42:21;;;;;;;12.48;9.48;;;;;;;7.40;100.00;98431.72;5049030;28;20197;-61
2023/04/08 03:44:47;;;;;;;11.77;9.63;;;;;;;7.46;100.00;98481.09;5048900;28;20700;-61
2023/04/08 03:47:12;;;;;;;11.07;9.18;;;;;;;6.84;100.00;98397.97;5078251;28;20220;-59
2023/04/08 03:49:37;;;;;;;11.70;9.43;;;;;;;6.77;100.00;98401.78;5078180;28;20181;-60
2023/04/08 03:52:03;;;;;;;11.98;9.77;;;;;;;6.94;100.00;98415.38;5072882;28;20177;-60
2023/04/08 03:54:28;;;;;;;10.43;9.32;;;;;;;7.06;100.00;98401.03;5072725;28;20729;-60
2023/04/08 03:56:54;;;;;;;10.48;9.38;;;;;;;7.44;100.00;98476.97;5072586;28;20788;-59
2023/04/08 03:59:20;;;;;;;12.68;9.02;;;;;;;7.07;100.00;98416.41;5072685;28;20386;-60
2023/04/08 04:01:46;;;;;;;9.15;7.85;;;;;;;7.56;99.90;98481.44;5072666;28;20185;-60
2023/04/08 04:04:11;;;;;;;11.07;9.13;;;;;;;7.56;99.49;98482.28;5072534;28;20694;-60
2023/04/08 04:06:37;;;;;;;10.20;8.75;;;;;;;7.56;99.26;98478.84;5072517;28;20217;-60
2023/04/08 04:09:02;;;;;;;11.23;9.15;;;;;;;7.70;98.57;98468.63;5072531;28;20169;-60
2023/04/08 04:11:28;;;;;;;11.80;9.00;;;;;;;8.00;97.31;98502.97;5059466;28;20649;-60
2023/04/08 04:13:53;;;;;;;10.57;8.70;;;;;;;7.70;97.57;98454.00;5072193;28;20660;-61
2023/04/08 04:16:18;;;;;;;9.60;8.38;;;;;;;7.43;97.03;98422.09;5072414;28;20193;-60
2023/04/08 04:18:44;;;;;;;12.73;8.82;;;;;;;7.63;96.61;98429.50;5072392;28;20189;-60
2023/04/08 04:21:09;;;;;;;9.98;8.57;;;;;;;7.46;96.37;98416.75;5072646;28;20586;-60
2023/04/08 04:23:35;;;;;;;12.85;8.82;;;;;;;7.57;97.11;98452.22;5072182;28;20262;-60
2023/04/08 04:26:00;;;;;;;9.90;8.68;;;;;;;7.69;97.04;98452.34;5072294;28;20200;-60
2023/04/08 04:28:25;;;;;;;10.32;9.27;;;;;;;7.36;97.61;98415.63;5072133;28;20227;-60
2023/04/08 04:30:51;;;;;;;9.57;8.38;;;;;;;7.78;97.68;98472.44;5072326;28;20181;-60
2023/04/08 04:33:16;;;;;;;11.23;8.82;;;;;;;7.70;95.68;98425.66;5072046;28;20584;-60
2023/04/08 04:35:42;;;;;;;10.18;8.93;;;;;;;8.33;94.58;98512.19;5071976;28;20265;-60
2023/04/08 04:38:11;;;;;;;11.07;8.32;;;;;;;8.43;93.02;98512.50;5071961;28;20177;-60
2023/04/08 04:40:39;;;;;;;12.13;9.00;;;;;;;8.61;92.14;98511.41;5071777;28;20576;-60
2023/04/08 04:43:05;;;;;;;10.25;8.52;;;;;;;8.24;89.49;98422.53;5071733;28;20207;-59
2023/04/08 04:45:30;;;;;;;13.07;10.18;;;;;;;8.27;89.14;98419.75;5057999;28;20652;-60
2023/04/08 04:47:56;;;;;;;15.20;11.70;;;;;;;8.52;90.08;98450.91;5054147;28;20670;-59
2023/04/08 04:50:21;;;;;;;15.63;11.98;;;;;;;8.45;91.17;98444.44;5054139;28;20639;-60
2023/04/08 04:52:47;;;;;;;17.38;12.20;;;;;;;8.67;91.75;98478.34;5054142;28;20185;-60
2023/04/08 04:55:14;;;;;;;16.15;11.30;;;;;;;8.93;92.22;98516.34;5053971;28;20182;-60
2023/04/08 04:57:40;;;;;;;12.32;9.88;;;;;;;8.94;91.88;98506.81;5053855;28;20193;-60
2023/04/08 05:00:07;;;;;;;14.13;11.18;;;;;;;8.57;92.54;98474.66;5053375;28;20181;-60
2023/04/08 05:02:32;;;;;;;14.77;10.90;;;;;;;8.39;91.75;98436.25;5053840;28;20189;-60
2023/04/08 05:04:58;;;;;;;13.75;10.40;;;;;;;8.72;91.68;98521.94;5053718;28;20201;-60
2023/04/08 05:07:24;;;;;;;14.95;10.93;;;;;;;8.35;92.16;98461.41;5053750;28;20224;-60
2023/04/08 05:09:50;;;;;;;13.13;11.25;;;;;;;8.67;92.43;98506.72;5053639;28;20181;-60
2023/04/08 05:12:15;;;;;;;14.23;11.77;;;;;;;8.88;92.17;98515.78;5053688;28;20174;-60
2023/04/08 05:14:41;;;;;;;15.00;12.38;;;;;;;8.76;91.13;98488.13;5053854;28;20186;-60
2023/04/08 05:17:06;;;;;;;17.20;11.85;;;;;;;8.78;91.01;98478.53;5053582;28;20170;-60
2023/04/08 05:19:32;;;;;;;19.65;13.25;;;;;;;8.95;91.22;98485.25;5053535;28;20182;-60
2023/04/08 05:21:57;;;;;;;20.60;15.00;;;;;;;8.97;92.30;98475.69;5053251;28;20184;-60
2023/04/08 05:24:22;;;;;;;30.23;17.48;;;;;;;9.39;94.49;98530.66;5053250;28;20228;-60
2023/04/08 05:26:51;;;;;;;23.95;18.08;;;;;;;9.16;96.58;98477.06;5053387;28;20169;-60
2023/04/08 05:29:17;;;;;;;28.17;20.02;;;;;;;9.09;99.72;98470.59;5051947;28;20182;-60
2023/04/08 05:31:43;;;;;;;28.33;19.77;;;;;;;9.24;100.00;98492.88;5051634;28;20166;-60
2023/04/08 05:34:10;;;;;;;31.20;21.35;;;;;;;9.57;100.00;98549.34;5052451;28;20676;-60
2023/04/08 05:36:35;;;;;;;24.40;18.92;;;;;;;9.52;100.00;98529.00;5052510;28;20585;-60
2023/04/08 05:39:00;;;;;;;26.02;18.40;;;;;;;9.27;100.00;98466.88;5052469;28;20170;-60
2023/04/08 05:41:26;;;;;;;24.35;17.83;;;;;;;9.45;100.00;98488.97;5053047;28;20197;-60
2023/04/08 05:43:51;;;;;;;28.27;18.83;;;;;;;9.78;100.00;98536.75;5052966;28;20300;-60
2023/04/08 05:46:17;;;;;;;25.88;18.67;;;;;;;9.56;100.00;98530.44;5053007;28;20173;-62
2023/04/08 05:48:42;;;;;;;23.90;17.73;;;;;;;9.42;100.00;98507.25;5052942;28;20224;-61
2023/04/08 05:51:13;;;;;;;25.38;17.92;;;;;;;9.30;100.00;98477.00;5052915;28;20205;-61
2023/04/08 05:53:38;;;;;;;26.67;17.52;;;;;;;9.32;100.00;98471.75;5052916;28;20201;-60
2023/04/08 05:56:04;;;;;;;28.25;18.88;;;;;;;9.34;100.00;98457.84;5052794;28;20166;-60
2023/04/08 05:58:29;;;;;;;29.27;18.58;;;;;;;9.41;100.00;98495.25;5052915;28;20276;-62
2023/04/08 06:00:55;;;;;;;30.90;19.27;;;;;;;9.22;100.00;98468.94;5052806;28;20181;-61
2023/04/08 06:03:20;;;;;;;28.55;20.58;;;;;;;9.05;100.00;98466.56;5052661;28;20984;-61
2023/04/08 06:05:46;;;;;;;31.55;20.00;;;;;;;9.13;100.00;98468.66;5052692;28;20256;-61
2023/04/08 06:08:11;;;;;;;27.13;19.27;;;;;;;9.24;100.00;98456.75;5052641;28;20179;-62
2023/04/08 06:10:38;;;;;;;29.08;19.40;;;;;;;9.88;100.00;98545.56;5051724;28;20198;-62
2023/04/08 06:13:03;;;;;;;29.85;19.60;;;;;;;9.67;100.00;98491.84;5052569;28;20208;-62
2023/04/08 06:15:29;;;;;;;30.10;20.00;;;;;;;9.91;100.00;98531.63;5052499;28;20177;-62
2023/04/08 06:17:54;;;;;;;25.25;18.23;;;;;;;10.12;100.00;98545.81;5052424;28;20628;-62
2023/04/08 06:20:20;;;;;;;26.55;20.73;;;;;;;9.63;100.00;98477.50;5052417;28;20188;-62
2023/04/08 06:22:45;;;;;;;29.60;19.50;;;;;;;9.81;100.00;98546.06;5052523;28;20180;-62
2023/04/08 06:25:11;;;;;;;29.63;22.17;;;;;;;9.43;100.00;98510.66;5052252;28;20201;-62
2023/04/08 06:27:36;;;;;;;29.25;21.30;;;;;;;9.28;100.00;98522.75;5052274;28;20566;-62
2023/04/08 06:30:02;;;;;;;28.63;20.60;;;;;;;9.30;100.00;98513.16;5052188;28;20260;-62
2023/04/08 06:32:27;;;;;;;34.05;21.70;;;;;;;8.98;100.00;98467.84;5052202;28;20273;-62
2023/04/08 06:34:52;;;;;;;34.53;22.23;;;;;;;9.06;100.00;98465.63;5052146;28;20616;-62
2023/04/08 06:37:18;;;;;;;33.35;21.33;;;;;;;9.06;100.00;98472.53;5052054;28;20174;-61
2023/04/08 06:39:43;;;;;;;31.92;22.10;;;;;;;9.14;100.00;98472.91;5050261;28;20220;-62
2023/04/08 06:42:09;;;;;;;29.73;21.33;;;;;;;9.14;100.00;98462.59;5051713;28;20246;-62
2023/04/08 06:44:34;;;;;;;31.25;21.13;;;;;;;9.15;100.00;98467.63;5052007;28;20205;-61
2023/04/08 06:47:00;;;;;;;30.42;21.02;;;;;;;9.25;100.00;98475.63;5052018;28;20260;-62
2023/04/08 06:49:26;;;;;;;29.23;21.42;;;;;;;9.71;100.00;98513.97;5051878;28;20261;-62
2023/04/08 06:51:51;;;;;;;33.83;21.65;;;;;;;10.07;100.00;98551.28;5051927;28;20212;-62
2023/04/08 06:54:17;;;;;;;28.85;21.63;;;;;;;9.94;100.00;98526.28;5051919;28;20602;-62
2023/04/08 06:56:42;;;;;;;29.88;20.77;;;;;;;10.21;100.00;98563.31;5051507;28;20225;-62
2023/04/08 06:59:08;;;;;;;28.83;21.05;;;;;;;9.91;100.00;98490.28;5047569;28;20193;-63
2023/04/08 07:01:33;;;;;;;29.23;20.65;;;;;;;10.36;99.84;98545.03;5049123;28;20204;-62
2023/04/08 07:04:01;;;;;;;31.75;21.77;;;;;;;9.79;98.76;98473.81;5049266;28;20224;-62
2023/04/08 07:06:26;;;;;;;28.58;21.58;;;;;;;9.91;100.00;98516.97;5049317;28;20348;-62
2023/04/08 07:08:51;;;;;;;28.50;21.25;;;;;;;9.84;100.00;98518.28;5049211;28;20656;-62
2023/04/08 07:11:17;;;;;;;28.35;20.58;;;;;;;10.06;100.00;98551.38;5049296;28;20192;-62
2023/04/08 07:13:42;;;;;;;29.50;20.90;;;;;;;9.62;99.75;98470.63;5049295;28;20272;-62
2023/04/08 07:16:08;;;;;;;31.60;21.55;;;;;;;9.70;99.85;98476.97;5049270;28;20418;-62
2023/04/08 07:18:33;;;;;;;32.60;23.88;;;;;;;9.70;100.00;98476.97;5049231;28;20189;-62
2023/04/08 07:20:59;;;;;;;36.90;25.35;;;;;;;10.19;99.08;98547.06;5049191;28;20559;-62
2023/04/08 07:23:25;;;;;;;28.75;21.30;;;;;;;9.78;98.97;98486.81;5052762;28;20641;-62
2023/04/08 07:25:51;;;;;;;27.52;20.67;;;;;;;10.21;99.01;98556.38;5053135;28;20190;-62
2023/04/08 07:28:16;;;;;;;33.20;23.05;;;;;;;10.37;98.68;98571.72;5093285;28;20184;-62
2023/04/08 07:30:42;;;;;;;29.42;20.90;;;;;;;10.16;97.99;98491.19;5093105;28;20196;-62
2023/04/08 07:33:07;;;;;;;29.20;20.65;;;;;;;10.84;95.13;98561.66;5093349;28;20671;-62
2023/04/08 07:35:33;;;;;;;29.08;21.08;;;;;;;11.07;92.70;98560.91;5093339;28;20194;-62
2023/04/08 07:38:00;;;;;;;32.47;20.88;;;;;;;11.08;91.08;98523.75;5093249;28;20312;-62
2023/04/08 07:40:26;;;;;;;33.33;22.35;;;;;;;10.97;89.63;98495.19;5093199;28;20191;-61
2023/04/08 07:42:51;;;;;;;28.17;22.25;;;;;;;11.44;88.64;98568.66;5093172;28;20181;-62
2023/04/08 07:45:17;;;;;;;30.13;21.27;;;;;;;11.49;87.78;98565.75;5052731;28;20249;-62
2023/04/08 07:47:43;;;;;;;28.55;21.63;;;;;;;11.49;87.21;98537.25;5052805;28;20606;-62
2023/04/08 07:50:09;;;;;;;28.80;21.42;;;;;;;11.79;86.38;98561.84;5052827;28;20657;-62
2023/04/08 07:52:34;;;;;;;30.42;20.55;;;;;;;11.87;84.18;98558.72;5052841;28;20170;-62
2023/04/08 07:55:00;;;;;;;28.45;20.45;;;;;;;11.82;83.56;98568.59;5052692;28;20194;-62
2023/04/08 07:57:26;;;;;;;28.85;20.15;;;;;;;11.74;84.57;98539.81;5052552;28;20597;-62
2023/04/08 07:59:51;;;;;;;27.38;18.90;;;;;;;11.75;83.61;98510.34;5037726;28;20209;-62
2023/04/08 08:02:17;;;;;;;21.33;17.23;;;;;;;11.97;81.17;98565.72;5032793;28;20762;-62
2023/04/08 08:04:42;;;;;;;26.73;19.48;;;;;;;11.36;82.01;98502.75;5032584;28;20696;-62
2023/04/08 08:07:08;;;;;;;26.98;19.67;;;;;;;11.64;83.13;98552.59;5032610;28;20193;-62
2023/04/08 08:09:33;;;;;;;23.75;17.80;;;;;;;11.47;83.01;98537.34;5032626;28;20606;-62
2023/04/08 08:11:59;;;;;;;24.75;18.13;;;;;;;11.30;84.15;98488.50;5032535;28;20584;-62
2023/04/08 08:14:25;;;;;;;24.20;18.20;;;;;;;11.75;84.45;98542.28;5032699;28;20235;-62
2023/04/08 08:16:51;;;;;;;24.38;18.60;;;;;;;12.04;82.57;98566.13;5041844;28;20662;-62
2023/04/08 08:19:16;;;;;;;21.80;16.05;;;;;;;12.03;78.87;98535.94;5052291;28;20193;-62
2023/04/08 08:21:42;;;;;;;20.88;16.70;;;;;;;12.19;78.62;98544.28;5052229;28;20185;-62
2023/04/08 08:24:07;;;;;;;23.40;16.67;;;;;;;12.49;79.01;98561.00;5052154;28;20670;-62
2023/04/08 08:26:35;;;;;;;23.70;17.35;;;;;;;12.42;78.07;98512.28;5052123;28;20197;-62
2023/04/08 08:29:01;;;;;;;25.92;18.30;;;;;;;12.34;78.43;98522.38;5052090;28;20339;-63
2023/04/08 08:31:26;;;;;;;20.77;16.33;;;;;;;12.24;77.99;98557.72;5031940;28;20751;-62
2023/04/08 08:33:52;;;;;;;20.73;15.93;;;;;;;12.31;75.05;98574.53;5031186;28;20301;-63
2023/04/08 08:36:17;;;;;;;21.25;16.85;;;;;;;12.33;76.40;98570.03;5032078;28;20182;-62
2023/04/08 08:38:43;;;;;;;20.85;16.38;;;;;;;12.08;75.76;98492.34;5031761;28;20186;-62
2023/04/08 08:41:08;;;;;;;19.27;14.60;;;;;;;12.29;73.59;98494.19;5031941;28;20194;-62
2023/04/08 08:43:34;;;;;;;17.67;14.15;;;;;;;12.85;72.44;98557.44;4992309;28;20343;-62
2023/04/08 08:46:00;;;;;;;20.77;15.63;;;;;;;12.94;69.86;98572.31;4992546;28;20188;-62
2023/04/08 08:48:26;;;;;;;15.80;13.77;;;;;;;12.99;67.80;98575.44;5007149;28;20191;-61
2023/04/08 08:50:51;;;;;;;19.05;14.00;;;;;;;12.74;68.95;98539.25;5012031;28;20183;-61
2023/04/08 08:53:18;;;;;;;18.10;14.73;;;;;;;12.63;69.99;98489.91;5012052;28;20193;-61
2023/04/08 08:55:43;;;;;;;18.10;15.55;;;;;;;13.18;69.82;98565.31;5011985;28;20183;-63
2023/04/08 08:58:09;;;;;;;20.52;16.90;;;;;;;13.08;70.74;98561.75;5011585;28;20751;-66
2023/04/08 09:00:36;;;;;;;18.92;14.55;;;;;;;12.95;69.80;98537.63;5011933;28;20187;-62
2023/04/08 09:03:22;;;;;;;19.77;15.55;;;;;;;13.15;70.62;98575.94;5011748;28;20199;-64
2023/04/08 09:05:54;;;;;;;20.10;15.35;;;;;;;12.84;71.28;98503.88;5011913;28;20179;-63
2023/04/08 09:08:31;;;;;;;18.50;14.18;;;;;;;12.85;71.51;98495.13;5011756;28;20219;-62
2023/04/08 09:11:14;;;;;;;19.08;14.82;;;;;;;12.81;71.54;98522.25;5011592;28;20183;-63
2023/04/08 09:13:40;;;;;;;19.00;14.80;;;;;;;12.83;72.19;98512.59;5016663;28;20198;-60
2023/04/08 09:16:08;;;;;;;20.02;15.82;;;;;;;13.23;72.71;98565.78;5051264;28;20264;-62
2023/04/08 09:18:34;;;;;;;18.20;15.20;;;;;;;13.06;72.87;98519.50;5051166;28;20746;-60
2023/04/08 09:21:01;;;;;;;20.45;15.57;;;;;;;13.11;72.18;98515.59;5051102;28;20235;-63
2023/04/08 09:23:44;;;;;;;20.48;16.08;;;;;;;13.60;72.06;98577.59;5049070;28;20771;-63
2023/04/08 09:26:13;;;;;;;21.83;16.50;;;;;;;13.64;71.96;98584.22;5050110;28;20182;-62
2023/04/08 09:28:40;;;;;;;19.88;16.25;;;;;;;13.35;72.44;98525.88;5051618;28;20186;-60
2023/04/08 09:31:26;;;;;;;19.05;15.40;;;;;;;13.71;72.14;98568.00;5053391;28;20177;-62
2023/04/08 09:33:54;;;;;;;19.65;14.50;;;;;;;13.27;70.77;98497.88;5053335;28;20173;-60
2023/04/08 09:36:21;;;;;;;22.55;18.15;;;;;;;13.56;71.71;98557.97;5042407;28;20269;-63
2023/04/08 09:38:46;;;;;;;17.77;15.40;;;;;;;13.80;71.40;98569.03;5033059;28;20221;-63
2023/04/08 09:41:15;;;;;;;20.20;15.57;;;;;;;13.64;70.55;98522.63;5033226;28;20206;-61
2023/04/08 09:43:50;;;;;;;19.95;15.30;;;;;;;13.71;70.05;98515.19;5033115;28;20204;-62
2023/04/08 09:46:18;;;;;;;22.98;17.88;;;;;;;13.66;70.23;98540.72;5033135;28;20177;-62
2023/04/08 09:48:53;;;;;;;22.23;16.70;;;;;;;13.84;70.16;98554.88;5033064;28;20179;-64
2023/04/08 09:51:22;;;;;;;21.88;16.55;;;;;;;13.33;70.47;98471.41;5030489;28;20190;-62
2023/04/08 09:53:56;;;;;;;16.25;14.43;;;;;;;13.49;70.59;98549.84;5030605;28;20670;-62
2023/04/08 09:56:21;;;;;;;18.20;14.15;;;;;;;13.18;70.45;98528.94;5030519;28;20199;-62
2023/04/08 09:59:08;;;;;;;17.40;14.38;;;;;;;13.61;69.45;98568.84;5030539;28;20185;-62
2023/04/08 10:01:38;;;;;;;17.73;14.40;;;;;;;13.05;69.92;98486.66;5030526;28;20183;-62
2023/04/08 10:04:09;;;;;;;17.08;13.70;;;;;;;13.10;70.17;98513.94;5030331;28;20225;-62
2023/04/08 10:06:35;;;;;;;22.40;15.10;;;;;;;13.40;70.10;98544.50;5030388;28;20676;-62
2023/04/08 10:09:03;;;;;;;15.82;13.13;;;;;;;13.19;70.07;98484.63;5030359;28;20178;-62
2023/04/08 10:11:29;;;;;;;14.30;12.90;;;;;;;13.61;68.86;98517.69;5030333;28;20222;-62
2023/04/08 10:13:55;;;;;;;19.38;13.32;;;;;;;13.75;68.41;98551.22;5030201;28;20186;-62
2023/04/08 10:16:20;;;;;;;15.73;12.88;;;;;;;13.65;68.82;98560.69;5030200;28;20294;-62
2023/04/08 10:18:48;;;;;;;13.77;12.25;;;;;;;13.30;69.48;98491.63;5030202;28;20179;-62
2023/04/08 10:21:34;;;;;;;17.25;12.60;;;;;;;13.87;68.10;98528.59;5030235;28;20182;-62
2023/04/08 10:24:05;;;;;;;16.45;13.32;;;;;;;13.69;67.69;98481.50;5032385;28;20202;-62
2023/04/08 10:26:35;;;;;;;16.00;13.43;;;;;;;13.86;67.91;98526.94;5032493;28;20185;-62
2023/04/08 10:29:16;;;;;;;16.58;11.73;;;;;;;14.22;67.59;98547.44;5032384;28;20257;-62
2023/04/08 10:31:41;;;;;;;16.95;12.50;;;;;;;14.42;66.41;98541.44;5032403;28;20181;-62
2023/04/08 10:34:16;;;;;;;15.25;12.48;;;;;;;13.98;65.33;98456.56;5032328;28;20175;-62
2023/04/08 10:36:45;;;;;;;16.02;13.52;;;;;;;14.08;66.13;98464.44;5032321;28;20186;-62
2023/04/08 10:39:12;;;;;;;14.95;12.88;;;;;;;14.51;65.41;98522.44;5032314;28;20167;-62
2023/04/08 10:41:45;;;;;;;13.95;12.00;;;;;;;14.13;63.73;98459.69;5032283;28;20197;-62
2023/04/08 10:44:23;;;;;;;14.88;11.73;;;;;;;14.57;64.02;98533.19;5032444;28;20201;-62
2023/04/08 10:46:50;;;;;;;14.95;11.45;;;;;;;14.10;65.67;98540.59;5032282;28;20230;-62
2023/04/08 10:49:16;;;;;;;12.80;11.45;;;;;;;13.76;66.18;98495.66;5032172;28;20171;-62
2023/04/08 10:51:45;;;;;;;16.35;12.32;;;;;;;13.83;66.22;98501.19;5032108;28;20178;-62
2023/04/08 10:54:13;;;;;;;20.10;16.95;;;;;;;13.89;66.92;98508.50;5032143;28;20170;-62
2023/04/08 10:56:47;;;;;;;19.95;16.70;;;;;;;13.99;66.35;98530.25;5031786;28;20175;-62
2023/04/08 10:59:15;;;;;;;21.27;13.77;;;;;;;13.86;66.42;98508.75;5032033;28;20206;-62
2023/04/08 11:01:43;;;;;;;15.50;13.30;;;;;;;13.98;66.27;98519.00;5031753;28;20259;-62
2023/04/08 11:04:22;;;;;;;14.02;11.48;;;;;;;13.67;66.58;98465.19;5031887;28;20205;-62
2023/04/08 11:06:48;;;;;;;14.20;11.65;;;;;;;13.90;67.12;98510.16;5032053;28;20178;-62
2023/04/08 11:09:15;;;;;;;15.80;12.27;;;;;;;13.80;67.56;98493.63;5031645;28;20177;-62
2023/04/08 11:11:43;;;;;;;13.38;11.90;;;;;;;13.73;68.10;98479.47;5031850;28;20182;-62
2023/04/08 11:14:09;;;;;;;17.98;13.07;;;;;;;13.53;68.09;98428.25;5031874;28;20181;-62
2023/04/08 11:16:37;;;;;;;13.55;12.15;;;;;;;13.95;67.70;98489.81;5031868;28;20181;-62
2023/04/08 11:19:06;;;;;;;16.77;14.13;;;;;;;14.16;67.43;98499.28;5031859;28;20198;-62
2023/04/08 11:21:35;;;;;;;13.77;12.15;;;;;;;13.77;67.35;98442.69;5031835;28;20179;-62
2023/04/08 11:24:04;;;;;;;14.88;11.63;;;;;;;13.99;67.31;98460.00;5031914;28;20264;-62